createdAt,value
2022-12-09T00:00:55.595Z,72.96
2022-12-09T00:11:00.177Z,75.42
2022-12-09T00:21:12.580Z,75.98
2022-12-09T00:31:20.239Z,76.00
2022-12-09T00:41:23.562Z,78.07
2022-12-09T00:51:29.588Z,79.17
2022-12-09T01:01:32.918Z,78.91
2022-12-09T01:11:37.680Z,79.21
2022-12-09T01:21:42.700Z,79.68
2022-12-09T01:31:48.190Z,80.63
2022-12-09T01:41:52.131Z,80.15
2022-12-09T01:52:03.922Z,80.25
2022-12-09T02:02:10.850Z,79.50
2022-12-09T02:12:18.246Z,79.20
2022-12-09T02:22:25.780Z,80.26
2022-12-09T02:32:46.163Z,79.46
2022-12-09T02:42:52.825Z,79.97
2022-12-09T02:53:00.223Z,78.93
2022-12-09T03:03:09.675Z,78.59
2022-12-09T03:13:16.974Z,77.94
2022-12-09T03:23:26.278Z,78.46
2022-12-09T03:33:31.417Z,79.77
2022-12-09T03:43:39.424Z,79.08
2022-12-09T03:53:46.764Z,80.96
2022-12-09T04:03:54.371Z,81.50
2022-12-09T04:13:57.774Z,82.19
2022-12-09T04:24:03.229Z,81.80
2022-12-09T04:34:09.615Z,82.55
2022-12-09T04:44:14.712Z,82.85
2022-12-09T04:54:18.062Z,82.43
2022-12-09T05:04:22.613Z,81.82
2022-12-09T05:14:25.940Z,81.01
2022-12-09T05:24:32.845Z,80.68
2022-12-09T05:34:36.107Z,80.52
2022-12-09T05:44:41.131Z,79.72
2022-12-09T05:54:44.573Z,80.16
2022-12-09T06:04:49.075Z,79.25
2022-12-09T06:14:52.731Z,79.26
2022-12-09T06:24:57.702Z,79.21
2022-12-09T06:35:01.418Z,79.41
2022-12-09T06:56:55.656Z,79.76
2022-12-09T07:06:59.110Z,80.33
2022-12-09T07:17:05.017Z,80.90
2022-12-09T07:27:17.208Z,81.10
2022-12-09T07:37:23.977Z,81.94
2022-12-09T07:47:27.195Z,82.38
2022-12-09T07:57:31.754Z,82.52
2022-12-09T08:07:38.861Z,82.74
2022-12-09T08:17:48.676Z,83.19
2022-12-09T08:27:52.076Z,82.74
2022-12-09T08:37:56.505Z,83.27
2022-12-09T08:47:59.670Z,84.34
2022-12-09T08:58:04.399Z,87.79
2022-12-09T09:08:07.596Z,84.09
2022-12-09T09:18:12.858Z,84.19
2022-12-09T09:28:16.223Z,84.23
2022-12-09T09:38:21.228Z,83.84
2022-12-09T09:48:29.685Z,84.84
2022-12-09T09:58:40.623Z,85.12
2022-12-09T10:08:56.337Z,85.58
2022-12-09T10:19:09.269Z,85.19
2022-12-09T10:29:18.725Z,85.86
2022-12-09T10:39:23.518Z,85.69
2022-12-09T10:49:27.190Z,84.81
2022-12-09T10:59:32.806Z,84.84
2022-12-09T11:09:38.672Z,85.15
2022-12-09T11:19:47.962Z,84.69
2022-12-09T11:30:12.735Z,85.21
2022-12-09T11:40:20.391Z,83.54
2022-12-09T11:50:31.196Z,82.20
2022-12-09T12:00:43.177Z,80.29
2022-12-09T12:10:51.151Z,79.30
2022-12-09T12:21:10.746Z,77.87
2022-12-09T12:31:27.471Z,78.95
2022-12-09T12:41:39.133Z,76.76
2022-12-09T12:51:54.592Z,76.38
2022-12-09T13:02:10.462Z,76.35
2022-12-09T13:12:18.126Z,77.32
2022-12-09T13:22:25.580Z,76.78
2022-12-09T13:32:59.207Z,76.27
2022-12-09T13:43:11.829Z,76.42
2022-12-09T13:53:27.341Z,76.57
2022-12-09T14:03:35.246Z,75.47
2022-12-09T14:13:38.366Z,75.36
2022-12-09T14:24:21.231Z,74.91
2022-12-09T14:34:37.959Z,76.94
2022-12-09T14:44:50.409Z,77.55
2022-12-09T14:54:57.754Z,77.93
2022-12-09T15:05:03.651Z,78.32
2022-12-09T15:15:13.321Z,78.99
2022-12-09T15:25:19.238Z,80.72
2022-12-09T15:35:25.135Z,81.04
2022-12-09T15:45:34.781Z,81.57
2022-12-09T15:55:43.749Z,82.08
2022-12-09T16:05:53.844Z,81.78
2022-12-09T16:16:01.797Z,81.45
2022-12-09T16:26:07.824Z,81.73
2022-12-09T16:36:19.547Z,81.79
2022-12-09T16:46:42.719Z,81.63
2022-12-09T16:56:46.377Z,82.09
2022-12-09T17:06:50.915Z,82.45
2022-12-09T17:16:54.143Z,81.40
2022-12-09T17:26:59.438Z,82.00
2022-12-09T17:37:02.528Z,81.72
2022-12-09T17:47:07.077Z,80.85
2022-12-09T17:57:10.009Z,79.87
2022-12-09T18:07:14.423Z,79.77
2022-12-09T18:17:17.584Z,79.71
2022-12-09T18:27:22.101Z,78.92
2022-12-09T18:37:26.705Z,78.10
2022-12-09T18:59:33.811Z,77.99
2022-12-09T19:09:38.007Z,77.55
2022-12-09T19:19:42.417Z,76.75
2022-12-09T19:29:45.493Z,75.93
2022-12-09T19:39:50.696Z,75.78
2022-12-09T19:49:53.722Z,74.78
2022-12-09T19:59:58.273Z,75.10
2022-12-09T20:10:01.203Z,74.24
2022-12-09T20:20:07.390Z,74.02
2022-12-09T20:30:11.786Z,75.95
2022-12-09T20:40:16.302Z,75.22
2022-12-09T20:50:19.691Z,74.32
2022-12-09T21:00:24.109Z,75.18
2022-12-09T21:10:27.276Z,76.20
2022-12-09T21:20:32.019Z,77.27
2022-12-09T21:30:35.146Z,77.16
2022-12-09T21:40:39.517Z,77.99
2022-12-09T21:50:42.601Z,78.81
2022-12-09T22:00:47.462Z,78.94
2022-12-09T22:10:51.249Z,80.14
2022-12-09T22:21:24.041Z,80.11
2022-12-09T22:31:22.412Z,79.92
2022-12-09T22:41:29.931Z,80.27
2022-12-09T22:51:35.445Z,80.61
2022-12-09T23:01:40.107Z,80.40
2022-12-09T23:11:43.269Z,79.87
2022-12-09T23:21:50.299Z,79.18
2022-12-09T23:31:53.256Z,78.71
2022-12-09T23:41:57.690Z,78.19
2022-12-09T23:52:00.828Z,77.76
